Terminal Aerodrome Forecast
Issued by NWS

Home | Current Version | Previous Version | Text Only | Print | Product List | Glossary On
Versions: 1 2 3 4 5 6 7 8 9 10 11 12 13
000
FTAK31 PAJN 292340
TAFASI
TAF
PASI 292340Z 3000/3024 13009KT P6SM FEW035 BKN050
     FM300400 18005KT P6SM OVC040
     FM301400 14005KT P6SM VCSH OVC040
     FM301800 10013G21KT 5SM -RA BR OVC030
     FM302200 06011G18KT 5SM -RA BR SCT015 OVC030=

USA.gov is the U.S. government's official web portal to all federal, state and local government web resources and services.